Time,TemperatureF,DewpointF,PressureIn,WindDirection,WindDirectionDegrees,WindSpeedMPH,WindSpeedGustMPH,Humidity,HourlyPrecipIn,Conditions,Clouds,dailyrainin,SolarRadiationWatts/m^2,SoftwareType,DateUTC
2013-07-23 00:22:00,79.0,73.0,-100.00,NE,43,0.0,2.0,82,0.00,,,0.00,0.000000,,2013-07-23 05:22:00,
2013-07-23 00:33:00,79.0,73.0,-100.00,NE,43,0.0,2.0,82,0.00,,,0.00,0.000000,,2013-07-23 05:33:00,
2013-07-23 00:44:00,79.0,73.0,-100.00,NE,43,0.0,2.0,82,0.00,,,0.00,0.000000,,2013-07-23 05:44:00,
2013-07-23 00:52:00,79.0,73.0,-100.00,NE,43,0.0,2.0,82,0.00,,,0.00,0.000000,,2013-07-23 05:52:00,
2013-07-23 01:01:00,79.0,73.0,-100.00,NE,43,0.0,2.0,82,0.00,,,0.00,0.000000,,2013-07-23 06:01:00,
2013-07-23 01:22:00,78.0,73.0,-100.00,ENE,77,1.0,2.0,84,0.00,,,0.00,0.000000,,2013-07-23 06:22:00,
2013-07-23 01:33:00,78.0,73.0,-100.00,ENE,77,1.0,2.0,84,0.00,,,0.00,0.000000,,2013-07-23 06:33:00,
2013-07-23 01:42:00,78.0,73.0,-100.00,ENE,77,1.0,2.0,84,0.00,,,0.00,0.000000,,2013-07-23 06:42:00,
2013-07-23 01:52:00,78.0,73.0,-100.00,ENE,77,1.0,2.0,84,0.00,,,0.00,0.000000,,2013-07-23 06:52:00,
2013-07-23 02:01:00,78.0,73.0,-100.00,ENE,77,1.0,2.0,84,0.00,,,0.00,0.000000,,2013-07-23 07:01:00,
2013-07-23 02:22:00,80.0,71.0,-100.00,SW,231,2.0,5.0,74,0.00,,,0.00,0.000000,,2013-07-23 07:22:00,
2013-07-23 02:33:00,80.0,71.0,-100.00,SW,231,2.0,5.0,74,0.00,,,0.00,0.000000,,2013-07-23 07:33:00,
2013-07-23 02:42:00,80.0,71.0,-100.00,SW,231,2.0,5.0,74,0.00,,,0.00,0.000000,,2013-07-23 07:42:00,
2013-07-23 02:52:00,80.0,71.0,-100.00,SW,231,2.0,5.0,74,0.00,,,0.00,0.000000,,2013-07-23 07:52:00,
2013-07-23 03:01:00,80.0,71.0,-100.00,SW,231,2.0,5.0,74,0.00,,,0.00,0.000000,,2013-07-23 08:01:00,
2013-07-23 03:22:00,81.0,72.0,-100.00,WSW,246,3.0,9.0,74,0.00,,,0.00,0.000000,,2013-07-23 08:22:00,
2013-07-23 03:33:00,81.0,72.0,-100.00,WSW,246,3.0,9.0,74,0.00,,,0.00,0.000000,,2013-07-23 08:33:00,
2013-07-23 03:43:00,81.0,72.0,-100.00,WSW,246,3.0,9.0,74,0.00,,,0.00,0.000000,,2013-07-23 08:43:00,
2013-07-23 03:52:00,81.0,72.0,-100.00,WSW,246,3.0,9.0,74,0.00,,,0.00,0.000000,,2013-07-23 08:52:00,
2013-07-23 04:01:00,81.0,72.0,-100.00,WSW,246,3.0,9.0,74,0.00,,,0.00,0.000000,,2013-07-23 09:01:00,
2013-07-23 04:02:00,80.0,73.0,-100.00,WSW,253,1.0,5.0,78,0.00,,,0.00,0.000000,,2013-07-23 09:02:00,
2013-07-23 04:22:00,80.0,73.0,-100.00,WSW,253,1.0,5.0,78,0.00,,,0.00,0.000000,,2013-07-23 09:22:00,
2013-07-23 04:33:00,80.0,73.0,-100.00,WSW,253,1.0,5.0,78,0.00,,,0.00,0.000000,,2013-07-23 09:33:00,
2013-07-23 04:43:00,80.0,73.0,-100.00,WSW,253,1.0,5.0,78,0.00,,,0.00,0.000000,,2013-07-23 09:43:00,
2013-07-23 04:53:00,80.0,73.0,-100.00,WSW,253,1.0,5.0,78,0.00,,,0.00,0.000000,,2013-07-23 09:53:00,
2013-07-23 05:02:00,77.0,72.0,-100.00,South,169,0.0,4.0,85,0.00,,,0.00,0.000000,,2013-07-23 10:02:00,
2013-07-23 05:22:00,77.0,72.0,-100.00,South,169,0.0,4.0,85,0.00,,,0.00,0.000000,,2013-07-23 10:22:00,
2013-07-23 05:32:00,77.0,72.0,-100.00,South,169,0.0,4.0,85,0.00,,,0.00,0.000000,,2013-07-23 10:32:00,
2013-07-23 05:44:00,77.0,72.0,-100.00,South,169,0.0,4.0,85,0.00,,,0.00,0.000000,,2013-07-23 10:44:00,
2013-07-23 05:52:00,77.0,72.0,-100.00,South,169,0.0,4.0,85,0.00,,,0.00,0.000000,,2013-07-23 10:52:00,
2013-07-23 06:02:00,76.0,72.0,-100.00,NNW,341,0.0,4.0,87,0.00,,,0.00,0.000000,,2013-07-23 11:02:00,
2013-07-23 06:22:00,76.0,72.0,-100.00,NNW,341,0.0,4.0,87,0.00,,,0.00,0.000000,,2013-07-23 11:22:00,
2013-07-23 06:32:00,76.0,72.0,-100.00,NNW,341,0.0,4.0,87,0.00,,,0.00,0.000000,,2013-07-23 11:32:00,
2013-07-23 06:43:00,76.0,72.0,-100.00,NNW,341,0.0,4.0,87,0.00,,,0.00,0.000000,,2013-07-23 11:43:00,
2013-07-23 06:52:00,76.0,72.0,-100.00,NNW,341,0.0,4.0,87,0.00,,,0.00,0.000000,,2013-07-23 11:52:00,
2013-07-23 07:22:00,75.0,72.0,-100.00,ESE,113,0.0,0.0,89,0.00,,,0.00,17.000000,,2013-07-23 12:22:00,
2013-07-23 07:33:00,75.0,72.0,-100.00,ESE,113,0.0,0.0,89,0.00,,,0.00,17.000000,,2013-07-23 12:33:00,
2013-07-23 07:43:00,75.0,72.0,-100.00,ESE,113,0.0,0.0,89,0.00,,,0.00,17.000000,,2013-07-23 12:43:00,
2013-07-23 08:01:00,75.0,72.0,-100.00,ESE,113,0.0,0.0,89,0.00,,,0.00,17.000000,,2013-07-23 13:01:00,
2013-07-23 08:02:00,81.0,72.0,-100.00,WSW,246,4.0,7.0,75,0.00,,,0.00,136.000000,,2013-07-23 13:02:00,
2013-07-23 08:22:00,81.0,72.0,-100.00,WSW,246,4.0,7.0,75,0.00,,,0.00,136.000000,,2013-07-23 13:22:00,
2013-07-23 08:32:00,81.0,72.0,-100.00,WSW,246,4.0,7.0,75,0.00,,,0.00,136.000000,,2013-07-23 13:32:00,
2013-07-23 08:43:00,81.0,72.0,-100.00,WSW,246,4.0,7.0,75,0.00,,,0.00,136.000000,,2013-07-23 13:43:00,
2013-07-23 08:52:00,81.0,72.0,-100.00,WSW,246,4.0,7.0,75,0.00,,,0.00,136.000000,,2013-07-23 13:52:00,
2013-07-23 09:02:00,84.0,73.0,-100.00,WSW,251,5.0,9.0,70,0.00,,,0.00,352.000000,,2013-07-23 14:02:00,
2013-07-23 09:22:00,84.0,73.0,-100.00,WSW,251,5.0,9.0,70,0.00,,,0.00,352.000000,,2013-07-23 14:22:00,
2013-07-23 09:33:00,84.0,73.0,-100.00,WSW,251,5.0,9.0,70,0.00,,,0.00,352.000000,,2013-07-23 14:33:00,
2013-07-23 09:44:00,84.0,73.0,-100.00,WSW,251,5.0,9.0,70,0.00,,,0.00,352.000000,,2013-07-23 14:44:00,
2013-07-23 09:53:00,84.0,73.0,-100.00,WSW,251,5.0,9.0,70,0.00,,,0.00,352.000000,,2013-07-23 14:53:00,
2013-07-23 10:24:00,86.0,73.0,-100.00,West,263,5.0,11.0,66,0.00,,,0.00,554.000000,,2013-07-23 15:24:00,
2013-07-23 10:32:00,86.0,73.0,-100.00,West,263,5.0,11.0,66,0.00,,,0.00,554.000000,,2013-07-23 15:32:00,
2013-07-23 10:43:00,86.0,73.0,-100.00,West,263,5.0,11.0,66,0.00,,,0.00,554.000000,,2013-07-23 15:43:00,
2013-07-23 10:52:00,86.0,73.0,-100.00,West,263,5.0,11.0,66,0.00,,,0.00,554.000000,,2013-07-23 15:52:00,
2013-07-23 11:01:00,86.0,73.0,-100.00,West,263,5.0,11.0,66,0.00,,,0.00,554.000000,,2013-07-23 16:01:00,
2013-07-23 11:02:00,90.0,75.0,-100.00,WSW,240,5.0,10.0,61,0.00,,,0.00,775.000000,,2013-07-23 16:02:00,
2013-07-23 11:22:00,90.0,75.0,-100.00,WSW,240,5.0,10.0,61,0.00,,,0.00,775.000000,,2013-07-23 16:22:00,
2013-07-23 11:33:00,90.0,75.0,-100.00,WSW,240,5.0,10.0,61,0.00,,,0.00,775.000000,,2013-07-23 16:33:00,
2013-07-23 11:43:00,90.0,75.0,-100.00,WSW,240,5.0,10.0,61,0.00,,,0.00,775.000000,,2013-07-23 16:43:00,
2013-07-23 11:52:00,90.0,75.0,-100.00,WSW,240,5.0,10.0,61,0.00,,,0.00,775.000000,,2013-07-23 16:52:00,
2013-07-23 12:02:00,91.0,74.0,-100.00,WSW,239,6.0,11.0,58,0.00,,,0.00,888.000000,,2013-07-23 17:02:00,
2013-07-23 12:22:00,91.0,74.0,-100.00,WSW,239,6.0,11.0,58,0.00,,,0.00,888.000000,,2013-07-23 17:22:00,
2013-07-23 12:32:00,91.0,74.0,-100.00,WSW,239,6.0,11.0,58,0.00,,,0.00,888.000000,,2013-07-23 17:32:00,
2013-07-23 12:42:00,91.0,74.0,-100.00,WSW,239,6.0,11.0,58,0.00,,,0.00,888.000000,,2013-07-23 17:42:00,
2013-07-23 12:56:00,91.0,74.0,-100.00,WSW,239,6.0,11.0,58,0.00,,,0.00,888.000000,,2013-07-23 17:56:00,
2013-07-23 13:02:00,94.0,75.0,-100.00,SSW,199,5.0,12.0,55,0.00,,,0.00,1006.000000,,2013-07-23 18:02:00,
2013-07-23 13:26:00,94.0,75.0,-100.00,SSW,199,5.0,12.0,55,0.00,,,0.00,1006.000000,,2013-07-23 18:26:00,
2013-07-23 13:35:00,94.0,75.0,-100.00,SSW,199,5.0,12.0,55,0.00,,,0.00,1006.000000,,2013-07-23 18:35:00,
2013-07-23 13:49:00,94.0,75.0,-100.00,SSW,199,5.0,12.0,55,0.00,,,0.00,1006.000000,,2013-07-23 18:49:00,
2013-07-23 13:57:00,94.0,75.0,-100.00,SSW,199,5.0,12.0,55,0.00,,,0.00,1006.000000,,2013-07-23 18:57:00,
2013-07-23 14:02:00,96.0,75.0,-100.00,SW,221,5.0,11.0,52,0.00,,,0.00,1053.000000,,2013-07-23 19:02:00,
2013-07-23 14:28:00,96.0,75.0,-100.00,SW,221,5.0,11.0,52,0.00,,,0.00,1053.000000,,2013-07-23 19:28:00,
2013-07-23 14:35:00,96.0,75.0,-100.00,SW,221,5.0,11.0,52,0.00,,,0.00,1053.000000,,2013-07-23 19:35:00,
2013-07-23 14:55:00,96.0,75.0,-100.00,SW,221,5.0,11.0,52,0.00,,,0.00,1053.000000,,2013-07-23 19:55:00,
2013-07-23 15:02:00,94.0,75.0,-100.00,SW,218,4.0,10.0,55,0.00,,,0.00,635.000000,,2013-07-23 20:02:00,
2013-07-23 15:35:00,94.0,75.0,-100.00,SW,218,4.0,10.0,55,0.00,,,0.00,635.000000,,2013-07-23 20:35:00,
2013-07-23 15:59:00,94.0,75.0,-100.00,SW,218,4.0,10.0,55,0.00,,,0.00,635.000000,,2013-07-23 20:59:00,
2013-07-23 16:02:00,90.0,77.0,-100.00,WSW,248,4.0,13.0,65,0.02,,,0.02,555.000000,,2013-07-23 21:02:00,
2013-07-23 16:24:00,90.0,77.0,-100.00,WSW,248,4.0,13.0,65,0.02,,,0.02,555.000000,,2013-07-23 21:24:00,
2013-07-23 16:38:00,90.0,77.0,-100.00,WSW,248,4.0,13.0,65,0.02,,,0.02,555.000000,,2013-07-23 21:38:00,
2013-07-23 16:48:00,90.0,77.0,-100.00,WSW,248,4.0,13.0,65,0.02,,,0.02,555.000000,,2013-07-23 21:48:00,
2013-07-23 16:57:00,90.0,77.0,-100.00,WSW,248,4.0,13.0,65,0.02,,,0.02,555.000000,,2013-07-23 21:57:00,
2013-07-23 17:24:00,94.0,80.0,-100.00,SSE,164,2.0,6.0,65,0.00,,,0.02,600.000000,,2013-07-23 22:24:00,
2013-07-23 17:36:00,94.0,80.0,-100.00,SSE,164,2.0,6.0,65,0.00,,,0.02,600.000000,,2013-07-23 22:36:00,
2013-07-23 17:47:00,94.0,80.0,-100.00,SSE,164,2.0,6.0,65,0.00,,,0.02,600.000000,,2013-07-23 22:47:00,
2013-07-23 18:00:00,94.0,80.0,-100.00,SSE,164,2.0,6.0,65,0.00,,,0.02,600.000000,,2013-07-23 23:00:00,
2013-07-23 18:02:00,78.0,69.0,-100.00,SSE,152,6.0,20.0,75,0.06,,,0.08,244.000000,,2013-07-23 23:02:00,
2013-07-23 19:02:00,72.0,68.0,-100.00,NNE,18,8.0,22.0,87,0.89,,,0.97,4.000000,,2013-07-24 00:02:00,
2013-07-23 19:34:00,72.0,68.0,-100.00,NNE,18,8.0,22.0,87,0.89,,,0.97,4.000000,,2013-07-24 00:34:00,
2013-07-23 19:50:00,72.0,68.0,-100.00,NNE,18,8.0,22.0,87,0.89,,,0.97,4.000000,,2013-07-24 00:50:00,
2013-07-23 19:58:00,72.0,68.0,-100.00,NNE,18,8.0,22.0,87,0.89,,,0.97,4.000000,,2013-07-24 00:58:00,
2013-07-23 20:02:00,72.0,69.0,-100.00,NNW,330,3.0,18.0,90,0.47,,,1.44,2.000000,,2013-07-24 01:02:00,
2013-07-23 20:25:00,72.0,69.0,-100.00,NNW,330,3.0,18.0,90,0.47,,,1.44,2.000000,,2013-07-24 01:25:00,
2013-07-23 20:35:00,72.0,69.0,-100.00,NNW,330,3.0,18.0,90,0.47,,,1.44,2.000000,,2013-07-24 01:35:00,
2013-07-23 21:00:00,72.0,69.0,-100.00,NNW,330,3.0,18.0,90,0.47,,,1.44,2.000000,,2013-07-24 02:00:00,
2013-07-23 21:02:00,72.0,69.0,-100.00,ENE,58,2.0,9.0,91,0.01,,,1.45,15.000000,,2013-07-24 02:02:00,
2013-07-23 21:27:00,72.0,69.0,-100.00,ENE,58,2.0,9.0,91,0.01,,,1.45,15.000000,,2013-07-24 02:27:00,
2013-07-23 21:40:00,72.0,69.0,-100.00,ENE,58,2.0,9.0,91,0.01,,,1.45,15.000000,,2013-07-24 02:40:00,
2013-07-23 21:48:00,72.0,69.0,-100.00,ENE,58,2.0,9.0,91,0.01,,,1.45,15.000000,,2013-07-24 02:48:00,
2013-07-23 21:56:00,72.0,69.0,-100.00,ENE,58,2.0,9.0,91,0.01,,,1.45,15.000000,,2013-07-24 02:56:00,
2013-07-23 22:24:00,71.0,68.0,-100.00,East,91,4.0,8.0,91,0.00,,,1.45,0.000000,,2013-07-24 03:24:00,
2013-07-23 22:39:00,71.0,68.0,-100.00,East,91,4.0,8.0,91,0.00,,,1.45,0.000000,,2013-07-24 03:39:00,
2013-07-23 22:46:00,71.0,68.0,-100.00,East,91,4.0,8.0,91,0.00,,,1.45,0.000000,,2013-07-24 03:46:00,
2013-07-23 22:57:00,71.0,68.0,-100.00,East,91,4.0,8.0,91,0.00,,,1.45,0.000000,,2013-07-24 03:57:00,
2013-07-23 23:01:00,71.0,68.0,-100.00,East,91,4.0,8.0,91,0.00,,,1.45,0.000000,,2013-07-24 04:01:00,
2013-07-23 23:02:00,71.0,69.0,-100.00,East,87,2.0,8.0,92,0.00,,,1.45,0.000000,,2013-07-24 04:02:00,
2013-07-23 23:22:00,71.0,69.0,-100.00,East,87,2.0,8.0,92,0.00,,,1.45,0.000000,,2013-07-24 04:22:00,
2013-07-23 23:32:00,71.0,69.0,-100.00,East,87,2.0,8.0,92,0.00,,,1.45,0.000000,,2013-07-24 04:32:00,
2013-07-23 23:43:00,71.0,69.0,-100.00,East,87,2.0,8.0,92,0.00,,,1.45,0.000000,,2013-07-24 04:43:00,
2013-07-23 23:53:00,71.0,69.0,-100.00,East,87,2.0,8.0,92,0.00,,,1.45,0.000000,,2013-07-24 04:53:00,